createdAt,value
2018-02-19T00:00:25.796Z,81.10
2018-02-19T00:02:53.323Z,80.60
2018-02-19T00:05:20.870Z,80.40
2018-02-19T00:07:49.181Z,80.50
2018-02-19T00:10:17.485Z,80.40
2018-02-19T00:12:44.999Z,80.30
2018-02-19T00:15:12.539Z,80.60
2018-02-19T00:17:54.907Z,80.60
2018-02-19T00:20:22.468Z,81.20
2018-02-19T00:22:50.018Z,81.50
2018-02-19T00:25:17.589Z,82.70
2018-02-19T00:27:45.105Z,82.80
2018-02-19T00:30:13.406Z,82.80
2018-02-19T00:32:41.002Z,82.80
2018-02-19T00:35:10.310Z,83.80
2018-02-19T00:37:37.853Z,83.80
2018-02-19T00:40:06.171Z,85.10
2018-02-19T00:42:33.712Z,85.10
2018-02-19T00:45:02.034Z,87.00
2018-02-19T00:47:29.566Z,86.20
2018-02-19T00:49:57.134Z,86.40
2018-02-19T00:52:24.730Z,86.40
2018-02-19T00:54:53.066Z,86.30
2018-02-19T00:57:20.636Z,86.30
2018-02-19T00:59:48.213Z,86.00
2018-02-19T01:02:15.754Z,86.30
2018-02-19T01:04:43.404Z,85.40
2018-02-19T01:07:11.702Z,85.70
2018-02-19T01:09:40.020Z,85.40
2018-02-19T01:12:07.584Z,85.40
2018-02-19T01:14:35.164Z,85.10
2018-02-19T01:17:02.728Z,85.20
2018-02-19T01:19:30.327Z,85.60
2018-02-19T01:21:57.875Z,86.10
2018-02-19T01:24:25.410Z,86.10
2018-02-19T01:26:53.751Z,85.90
2018-02-19T01:29:21.305Z,85.90
2018-02-19T01:31:48.875Z,85.80
2018-02-19T01:34:16.434Z,85.70
2018-02-19T01:36:43.988Z,86.00
2018-02-19T01:39:12.318Z,86.00
2018-02-19T01:41:39.871Z,85.90
2018-02-19T01:44:08.176Z,86.00
2018-02-19T01:46:35.740Z,85.90
2018-02-19T01:49:03.292Z,85.90
2018-02-19T01:51:31.629Z,85.20
2018-02-19T01:53:59.167Z,85.20
2018-02-19T01:56:26.767Z,85.40
2018-02-19T01:58:54.304Z,85.60
2018-02-19T02:01:22.653Z,85.80
2018-02-19T02:03:50.183Z,85.80
2018-02-19T02:06:17.770Z,85.90
2018-02-19T02:08:45.328Z,85.30
2018-02-19T02:11:12.883Z,85.10
2018-02-19T02:13:41.195Z,85.40
2018-02-19T02:16:08.754Z,85.30
2018-02-19T02:18:38.046Z,85.50
2018-02-19T02:23:41.032Z,85.90
2018-02-19T02:26:08.606Z,85.90
2018-02-19T02:28:36.912Z,85.10
2018-02-19T02:31:04.466Z,85.10
2018-02-19T02:33:32.008Z,84.40
2018-02-19T02:35:59.615Z,85.10
2018-02-19T02:38:27.159Z,85.10
2018-02-19T02:40:54.699Z,85.00
2018-02-19T02:43:23.036Z,85.20
2018-02-19T02:45:50.578Z,85.20
2018-02-19T02:48:18.147Z,85.60
2018-02-19T02:50:45.680Z,85.50
2018-02-19T02:53:13.237Z,85.80
2018-02-19T02:55:40.779Z,85.90
2018-02-19T02:58:08.338Z,85.20
2018-02-19T03:00:35.874Z,84.70
2018-02-19T03:03:03.431Z,85.30
2018-02-19T03:05:30.977Z,85.20
2018-02-19T03:07:58.541Z,85.90
2018-02-19T03:10:26.059Z,85.60
2018-02-19T03:12:53.610Z,85.40
2018-02-19T03:15:21.136Z,84.50
2018-02-19T03:17:49.456Z,84.60
2018-02-19T03:20:16.986Z,84.60
2018-02-19T03:22:45.323Z,84.10
2018-02-19T03:25:12.854Z,84.10
2018-02-19T03:27:41.191Z,84.20
2018-02-19T03:30:08.724Z,84.10
2018-02-19T03:32:36.274Z,84.30
2018-02-19T03:35:03.821Z,84.70
2018-02-19T03:37:31.386Z,85.60
2018-02-19T03:39:58.923Z,85.50
2018-02-19T03:42:26.474Z,85.90
2018-02-19T03:44:54.762Z,86.10
2018-02-19T03:47:22.310Z,86.10
2018-02-19T03:49:49.849Z,85.90
2018-02-19T03:52:18.881Z,84.90
2018-02-19T03:54:46.428Z,85.40
2018-02-19T03:57:13.956Z,85.90
2018-02-19T03:59:42.284Z,84.80
2018-02-19T04:02:09.817Z,84.80
2018-02-19T04:04:38.153Z,83.80
2018-02-19T04:07:05.694Z,83.70
2018-02-19T04:09:33.270Z,84.40
2018-02-19T04:12:00.798Z,85.20
2018-02-19T04:14:28.354Z,85.10
2018-02-19T04:16:55.887Z,85.50
2018-02-19T04:19:23.437Z,85.80
2018-02-19T04:21:51.740Z,85.60
2018-02-19T04:24:19.283Z,85.60
2018-02-19T04:26:46.816Z,86.10
2018-02-19T04:29:14.368Z,86.30
2018-02-19T04:31:41.887Z,86.70
2018-02-19T04:34:09.442Z,86.70
2018-02-19T04:36:36.972Z,86.90
2018-02-19T04:39:04.523Z,87.20
2018-02-19T04:41:32.822Z,87.30
2018-02-19T04:44:01.156Z,87.40
2018-02-19T04:46:42.443Z,87.30
2018-02-19T04:49:09.986Z,87.60
2018-02-19T04:51:38.302Z,86.80
2018-02-19T04:54:05.894Z,86.80
2018-02-19T04:56:33.424Z,87.30
2018-02-19T04:59:00.975Z,87.30
2018-02-19T05:01:29.289Z,87.40
2018-02-19T05:03:56.913Z,87.20
2018-02-19T05:06:26.065Z,85.00
2018-02-19T05:08:53.627Z,85.00
2018-02-19T05:11:21.947Z,85.40
2018-02-19T05:13:49.496Z,85.30
2018-02-19T05:16:17.805Z,84.30
2018-02-19T05:18:45.380Z,84.30
2018-02-19T05:21:12.930Z,83.90
2018-02-19T05:23:40.485Z,83.60
2018-02-19T05:26:08.051Z,83.50
2018-02-19T05:28:35.585Z,84.00
2018-02-19T05:31:03.144Z,84.60
2018-02-19T05:33:30.687Z,84.50
2018-02-19T05:35:59.018Z,84.60
2018-02-19T05:38:26.558Z,84.60
2018-02-19T05:40:54.115Z,84.60
2018-02-19T05:43:22.418Z,84.50
2018-02-19T05:45:49.979Z,84.50
2018-02-19T05:48:18.292Z,84.00
2018-02-19T05:50:45.855Z,84.00
2018-02-19T05:53:13.398Z,84.10
2018-02-19T05:55:41.733Z,84.40
2018-02-19T05:58:09.263Z,84.30
2018-02-19T06:00:37.617Z,84.10
2018-02-19T06:03:05.197Z,84.10
2018-02-19T06:05:32.775Z,83.60
2018-02-19T06:08:00.408Z,84.20
2018-02-19T06:10:27.978Z,83.50
2018-02-19T06:12:55.520Z,83.80
2018-02-19T06:15:23.848Z,83.50
2018-02-19T06:17:51.379Z,83.50
2018-02-19T06:20:19.722Z,83.30
2018-02-19T06:22:47.254Z,83.30
2018-02-19T06:25:15.585Z,83.00
2018-02-19T06:27:43.184Z,83.00
2018-02-19T06:30:10.842Z,82.90
2018-02-19T06:32:38.414Z,82.50
2018-02-19T06:35:05.974Z,82.40
2018-02-19T06:37:33.527Z,82.50
2018-02-19T06:40:01.070Z,82.10
2018-02-19T06:42:29.398Z,82.10
2018-02-19T06:44:56.928Z,82.10
2018-02-19T06:47:25.277Z,82.20
2018-02-19T06:49:52.820Z,82.20
2018-02-19T06:52:20.394Z,82.10
2018-02-19T06:54:47.961Z,82.10
2018-02-19T06:57:15.538Z,82.10
2018-02-19T06:59:43.077Z,81.80
2018-02-19T07:02:11.407Z,81.70
2018-02-19T07:04:38.953Z,81.70
2018-02-19T07:07:06.547Z,82.10
2018-02-19T07:09:34.098Z,82.10
2018-02-19T07:12:02.430Z,81.50
2018-02-19T07:14:29.978Z,81.50
2018-02-19T07:16:57.543Z,82.10
2018-02-19T07:19:25.090Z,81.10
2018-02-19T07:21:53.428Z,81.40
2018-02-19T07:24:20.979Z,81.30
2018-02-19T07:26:48.553Z,80.80
2018-02-19T07:29:16.087Z,80.70
2018-02-19T07:31:43.654Z,80.60
2018-02-19T07:34:11.183Z,81.30
2018-02-19T07:36:38.804Z,80.80
2018-02-19T07:39:06.352Z,80.70
2018-02-19T07:41:33.887Z,80.20
2018-02-19T07:44:01.453Z,80.60
2018-02-19T07:46:29.017Z,80.30
2018-02-19T07:48:56.580Z,79.90
2018-02-19T07:51:24.886Z,80.10
2018-02-19T07:53:52.456Z,80.10
2018-02-19T07:56:19.985Z,79.70
2018-02-19T07:58:47.544Z,79.70
2018-02-19T08:01:15.094Z,79.80
2018-02-19T08:03:42.652Z,80.30
2018-02-19T08:06:10.207Z,79.30
2018-02-19T08:08:38.622Z,80.30
2018-02-19T08:11:06.159Z,80.30
2018-02-19T08:13:34.497Z,78.70
2018-02-19T08:16:02.130Z,78.70
2018-02-19T08:18:30.458Z,79.30
2018-02-19T08:20:58.007Z,79.30
2018-02-19T08:23:25.589Z,78.60
2018-02-19T08:25:53.123Z,78.30
2018-02-19T08:28:20.695Z,77.90
2018-02-19T08:30:48.237Z,78.70
2018-02-19T08:33:15.795Z,79.30
2018-02-19T08:35:43.355Z,78.60
2018-02-19T08:38:10.926Z,78.60
2018-02-19T08:40:38.465Z,78.90
2018-02-19T08:43:06.797Z,78.30
2018-02-19T08:45:34.338Z,78.30
2018-02-19T08:48:02.636Z,77.50
2018-02-19T08:50:30.934Z,77.70
2018-02-19T08:52:58.460Z,77.70
2018-02-19T08:55:26.018Z,78.20
2018-02-19T08:57:53.594Z,78.40
2018-02-19T09:00:21.173Z,77.50
2018-02-19T09:02:48.773Z,77.30
2018-02-19T09:05:17.090Z,78.00
2018-02-19T09:07:44.606Z,77.90
2018-02-19T09:10:12.152Z,78.70
2018-02-19T09:12:39.673Z,78.60
2018-02-19T09:15:07.247Z,77.50
2018-02-19T09:17:35.537Z,77.90
2018-02-19T09:20:03.875Z,77.70
2018-02-19T09:22:31.420Z,77.70
2018-02-19T09:24:59.743Z,77.30
2018-02-19T09:27:27.283Z,77.20
2018-02-19T09:29:54.840Z,77.70
2018-02-19T09:32:22.390Z,77.20
2018-02-19T09:34:49.950Z,76.80
2018-02-19T09:37:17.487Z,77.20
2018-02-19T09:39:45.049Z,77.50
2018-02-19T09:42:13.392Z,77.60
2018-02-19T09:44:40.190Z,76.90
2018-02-19T09:47:07.725Z,75.20
2018-02-19T09:49:37.237Z,76.70
2018-02-19T09:52:04.815Z,76.50
2018-02-19T09:54:33.112Z,76.90
2018-02-19T09:57:01.479Z,75.90
2018-02-19T09:59:28.982Z,75.80
2018-02-19T10:01:57.953Z,75.40
2018-02-19T10:04:25.490Z,75.40
2018-02-19T10:06:53.084Z,76.20
2018-02-19T10:09:21.377Z,75.60
2018-02-19T10:11:48.922Z,75.60
2018-02-19T10:14:16.441Z,75.70
2018-02-19T10:16:44.084Z,75.20
2018-02-19T10:19:11.631Z,74.20
2018-02-19T10:21:39.279Z,74.30
2018-02-19T10:24:07.616Z,74.50
2018-02-19T10:26:35.174Z,74.50
2018-02-19T10:29:02.750Z,74.10
2018-02-19T10:31:30.314Z,72.30
2018-02-19T10:33:57.946Z,72.40
2018-02-19T10:36:25.558Z,72.10
2018-02-19T10:38:54.342Z,72.40
2018-02-19T10:41:22.957Z,73.50
2018-02-19T10:43:50.618Z,73.50
2018-02-19T10:46:18.940Z,72.60
2018-02-19T10:48:46.480Z,72.60
2018-02-19T10:51:14.062Z,72.00
2018-02-19T10:53:41.649Z,71.20
2018-02-19T10:56:09.296Z,70.70
2018-02-19T10:58:43.625Z,70.70
2018-02-19T11:01:11.954Z,70.70
2018-02-19T11:03:39.487Z,70.70
2018-02-19T11:06:07.237Z,70.90
2018-02-19T11:08:35.248Z,71.10
2018-02-19T11:11:03.089Z,71.40
2018-02-19T11:13:31.846Z,71.70
2018-02-19T11:15:59.535Z,71.50
2018-02-19T11:18:27.178Z,71.70
2018-02-19T11:20:54.745Z,72.30
2018-02-19T11:23:23.074Z,72.10
2018-02-19T11:25:50.602Z,71.50
2018-02-19T11:28:18.977Z,71.90
2018-02-19T11:30:46.502Z,71.90
2018-02-19T11:33:14.098Z,72.30
2018-02-19T11:35:41.625Z,72.00
2018-02-19T11:38:09.190Z,71.50
2018-02-19T11:40:36.712Z,71.70
2018-02-19T11:43:04.267Z,71.80
2018-02-19T11:45:31.781Z,73.60
2018-02-19T11:48:00.089Z,72.50
2018-02-19T11:50:28.389Z,72.10
2018-02-19T11:52:56.724Z,72.50
2018-02-19T11:55:25.031Z,72.30
2018-02-19T11:57:52.578Z,72.20
2018-02-19T12:00:20.506Z,72.20
2018-02-19T12:02:48.103Z,72.20
2018-02-19T12:05:15.634Z,72.40
2018-02-19T12:07:43.957Z,70.80
2018-02-19T12:10:11.486Z,70.80
2018-02-19T12:12:39.059Z,72.00
2018-02-19T12:15:06.586Z,71.50
2018-02-19T12:17:34.127Z,72.00
2018-02-19T12:20:02.439Z,71.50
2018-02-19T12:22:29.978Z,71.40
2018-02-19T12:24:58.302Z,71.30
2018-02-19T12:27:25.832Z,70.60
2018-02-19T12:29:53.365Z,70.60
2018-02-19T12:32:20.873Z,71.60
2018-02-19T12:34:48.413Z,72.10
2018-02-19T12:37:15.943Z,72.00
2018-02-19T12:39:44.354Z,72.10
2018-02-19T12:42:11.879Z,72.10
2018-02-19T12:44:39.430Z,71.80
2018-02-19T12:47:06.947Z,70.80
2018-02-19T12:49:35.261Z,70.70
2018-02-19T12:52:02.795Z,70.70
2018-02-19T12:54:30.334Z,72.10
2018-02-19T12:56:57.878Z,71.30
2018-02-19T12:59:25.429Z,71.40
2018-02-19T13:01:53.719Z,72.10
2018-02-19T13:04:22.064Z,72.30
2018-02-19T13:06:49.589Z,72.90
2018-02-19T13:09:17.144Z,72.70
2018-02-19T13:11:45.429Z,72.20
2018-02-19T13:14:13.733Z,72.40
2018-02-19T13:16:41.249Z,72.40
2018-02-19T13:19:08.793Z,72.00
2018-02-19T13:21:36.334Z,71.90
2018-02-19T13:24:03.908Z,72.40
2018-02-19T13:26:32.202Z,72.70
2018-02-19T13:29:00.517Z,72.40
2018-02-19T13:31:28.038Z,72.30
2018-02-19T13:33:55.589Z,73.00
2018-02-19T13:36:23.114Z,72.50
2018-02-19T13:38:51.432Z,73.40
2018-02-19T13:41:18.959Z,73.40
2018-02-19T13:43:47.285Z,73.20
2018-02-19T13:46:14.814Z,73.20
2018-02-19T13:48:43.118Z,73.40
2018-02-19T13:51:12.021Z,73.70
2018-02-19T13:53:40.313Z,73.90
2018-02-19T13:56:08.608Z,74.10
2018-02-19T13:58:36.911Z,74.10
2018-02-19T14:01:04.454Z,74.00
2018-02-19T14:03:32.741Z,75.50
2018-02-19T14:06:00.353Z,75.30
2018-02-19T14:08:27.885Z,75.30
2018-02-19T14:10:55.449Z,75.30
2018-02-19T14:13:22.980Z,74.70
2018-02-19T14:15:50.527Z,75.00
2018-02-19T14:18:18.041Z,75.30
2018-02-19T14:20:45.585Z,75.00
2018-02-19T14:23:13.094Z,74.50
2018-02-19T14:25:40.622Z,74.30
2018-02-19T14:28:08.151Z,74.40
2018-02-19T14:30:35.691Z,74.60
2018-02-19T14:33:03.202Z,75.30
2018-02-19T14:35:30.733Z,75.30
2018-02-19T14:37:58.251Z,74.80
2018-02-19T14:40:26.560Z,74.10
2018-02-19T14:42:54.085Z,74.10
2018-02-19T14:45:21.624Z,74.50
2018-02-19T14:47:49.166Z,75.20
2018-02-19T14:50:17.476Z,75.10
2018-02-19T14:52:45.006Z,75.00
2018-02-19T14:55:12.562Z,75.00
2018-02-19T14:57:40.868Z,75.40
2018-02-19T15:00:08.462Z,75.40
2018-02-19T15:02:36.761Z,75.50
2018-02-19T15:05:04.293Z,75.50
2018-02-19T15:07:32.732Z,75.20
2018-02-19T15:10:00.264Z,75.10
2018-02-19T15:12:27.811Z,75.10
2018-02-19T15:14:55.349Z,75.10
2018-02-19T15:17:22.876Z,75.00
2018-02-19T15:19:50.421Z,75.30
2018-02-19T15:22:17.938Z,75.20
2018-02-19T15:24:45.485Z,76.10
2018-02-19T15:27:12.999Z,76.00
2018-02-19T15:29:40.534Z,75.80
2018-02-19T15:32:08.051Z,75.90
2018-02-19T15:34:35.574Z,76.10
2018-02-19T15:37:03.111Z,76.10
2018-02-19T15:39:30.625Z,76.20
2018-02-19T15:41:58.196Z,75.80
2018-02-19T15:44:25.708Z,76.00
2018-02-19T15:46:53.264Z,76.20
2018-02-19T15:49:21.541Z,75.90
2018-02-19T15:51:49.866Z,75.90
2018-02-19T15:54:17.373Z,75.90
2018-02-19T15:56:44.905Z,76.80
2018-02-19T15:59:12.414Z,76.40
2018-02-19T16:01:40.046Z,76.70
2018-02-19T16:04:07.574Z,76.20
2018-02-19T16:06:35.128Z,76.30
2018-02-19T16:09:02.645Z,76.70
2018-02-19T16:11:30.946Z,76.60
2018-02-19T16:13:58.472Z,76.60
2018-02-19T16:16:26.028Z,76.60
2018-02-19T16:18:53.562Z,76.90
2018-02-19T16:21:21.140Z,76.30
2018-02-19T16:23:48.670Z,77.20
2018-02-19T16:26:16.228Z,77.00
2018-02-19T16:28:43.759Z,77.40
2018-02-19T16:31:11.297Z,77.20
2018-02-19T16:33:39.703Z,77.50
2018-02-19T16:36:07.248Z,77.50
2018-02-19T16:38:34.782Z,77.80
2018-02-19T16:41:02.319Z,77.40
2018-02-19T16:43:30.308Z,77.40
2018-02-19T16:45:57.844Z,76.70
2018-02-19T16:48:25.392Z,77.30
2018-02-19T16:50:52.921Z,76.90
2018-02-19T16:53:20.465Z,76.70
2018-02-19T16:55:48.769Z,77.20
2018-02-19T16:58:16.338Z,76.40
2018-02-19T17:00:43.845Z,76.10
2018-02-19T17:03:11.391Z,76.70
2018-02-19T17:05:38.916Z,76.80
2018-02-19T17:08:06.448Z,77.20
2018-02-19T17:10:33.974Z,76.70
2018-02-19T17:13:01.537Z,75.90
2018-02-19T17:15:29.054Z,76.00
2018-02-19T17:17:56.595Z,76.00
2018-02-19T17:20:24.116Z,76.00
2018-02-19T17:22:51.662Z,76.70
2018-02-19T17:25:19.191Z,76.80
2018-02-19T17:27:46.725Z,77.00
2018-02-19T17:30:15.161Z,77.00
2018-02-19T17:32:42.695Z,76.50
2018-02-19T17:35:10.205Z,76.50
2018-02-19T17:37:37.734Z,77.70
2018-02-19T17:40:05.245Z,78.20
2018-02-19T17:42:32.874Z,78.20
2018-02-19T17:45:00.394Z,78.20
2018-02-19T17:47:27.930Z,77.20
2018-02-19T17:49:55.444Z,76.90
2018-02-19T17:52:23.007Z,77.30
2018-02-19T17:54:50.532Z,77.60
2018-02-19T17:57:18.872Z,77.50
2018-02-19T17:59:46.381Z,78.10
2018-02-19T18:02:13.929Z,78.30
2018-02-19T18:04:42.240Z,78.30
2018-02-19T18:07:09.775Z,78.20
2018-02-19T18:09:37.297Z,78.60
2018-02-19T18:12:04.835Z,79.10
2018-02-19T18:14:33.147Z,80.40
2018-02-19T18:17:00.715Z,80.40
2018-02-19T18:19:29.171Z,80.20
2018-02-19T18:21:56.717Z,80.30
2018-02-19T18:24:24.233Z,80.20
2018-02-19T18:26:52.540Z,80.70
2018-02-19T18:29:20.057Z,80.60
2018-02-19T18:31:47.601Z,80.80
2018-02-19T18:34:15.114Z,81.20
2018-02-19T18:36:42.675Z,81.00
2018-02-19T18:39:10.219Z,81.40
2018-02-19T18:41:37.753Z,81.10
2018-02-19T18:44:06.061Z,80.60
2018-02-19T18:46:33.587Z,80.50
2018-02-19T18:49:01.129Z,80.20
2018-02-19T18:51:28.653Z,79.70
2018-02-19T18:53:56.193Z,79.80
2018-02-19T18:56:23.753Z,80.20
2018-02-19T18:58:51.694Z,79.90
2018-02-19T19:01:19.185Z,80.40
2018-02-19T19:03:46.735Z,80.50
2018-02-19T19:06:15.043Z,80.80
2018-02-19T19:08:54.326Z,80.80
2018-02-19T19:11:21.843Z,79.90
2018-02-19T19:13:50.165Z,80.10
2018-02-19T19:16:17.686Z,80.10
2018-02-19T19:18:45.211Z,80.50
2018-02-19T19:21:12.725Z,80.50
2018-02-19T19:23:40.262Z,80.40
2018-02-19T19:26:07.784Z,80.50
2018-02-19T19:28:36.095Z,80.60
2018-02-19T19:31:03.616Z,80.60
2018-02-19T19:33:31.157Z,80.30
2018-02-19T19:35:58.753Z,80.60
2018-02-19T19:38:26.260Z,80.80
2018-02-19T19:40:53.783Z,80.60
2018-02-19T19:43:21.341Z,81.10
2018-02-19T19:45:48.856Z,81.40
2018-02-19T19:48:16.407Z,81.00
2018-02-19T19:50:43.941Z,81.20
2018-02-19T19:53:11.493Z,80.80
2018-02-19T19:55:39.023Z,80.90
2018-02-19T19:58:06.583Z,81.20
2018-02-19T20:00:34.097Z,81.80
2018-02-19T20:03:01.635Z,81.80
2018-02-19T20:05:29.156Z,81.80
2018-02-19T20:07:57.494Z,81.80
2018-02-19T20:10:24.991Z,81.70
2018-02-19T20:12:52.542Z,81.80
2018-02-19T20:15:20.048Z,81.80
2018-02-19T20:17:47.590Z,81.90
2018-02-19T20:20:15.121Z,81.90
2018-02-19T20:22:42.656Z,81.80
2018-02-19T20:25:10.193Z,81.90
2018-02-19T20:27:37.712Z,81.60
2018-02-19T20:30:06.061Z,80.90
2018-02-19T20:32:33.568Z,80.80
2018-02-19T20:35:01.872Z,81.60
2018-02-19T20:37:30.153Z,81.80
2018-02-19T20:39:58.464Z,81.90
2018-02-19T20:42:25.989Z,81.90
2018-02-19T20:44:53.545Z,81.70
2018-02-19T20:47:21.076Z,81.90
2018-02-19T20:49:48.608Z,81.80
2018-02-19T20:52:16.147Z,81.90
2018-02-19T20:54:43.688Z,81.80
2018-02-19T20:57:11.202Z,81.80
2018-02-19T20:59:38.755Z,82.30
2018-02-19T21:02:06.278Z,81.80
2018-02-19T21:04:33.809Z,81.80
2018-02-19T21:07:01.335Z,81.80
2018-02-19T21:09:29.670Z,81.90
2018-02-19T21:11:57.190Z,81.80
2018-02-19T21:14:25.506Z,82.20
2018-02-19T21:16:53.054Z,82.10
2018-02-19T21:19:21.368Z,82.40
2018-02-19T21:21:48.890Z,82.40
2018-02-19T21:24:16.420Z,82.50
2018-02-19T21:26:43.939Z,82.50
2018-02-19T21:29:11.532Z,82.20
2018-02-19T21:31:39.010Z,82.60
2018-02-19T21:34:06.554Z,82.90
2018-02-19T21:36:34.080Z,83.10
2018-02-19T21:39:01.619Z,83.10
2018-02-19T21:41:29.914Z,82.90
2018-02-19T21:43:58.235Z,82.70
2018-02-19T21:46:25.766Z,82.80
2018-02-19T21:48:54.074Z,82.90
2018-02-19T21:51:21.594Z,82.90
2018-02-19T21:53:49.139Z,83.30
2018-02-19T21:56:16.665Z,83.50
2018-02-19T21:58:44.987Z,83.50
2018-02-19T22:01:12.521Z,83.50
2018-02-19T22:03:40.106Z,83.60
2018-02-19T22:06:07.687Z,83.60
2018-02-19T22:08:35.298Z,83.80
2018-02-19T22:11:02.851Z,83.90
2018-02-19T22:13:30.388Z,84.30
2018-02-19T22:15:58.707Z,83.20
2018-02-19T22:18:26.253Z,83.20
2018-02-19T22:20:54.567Z,83.60
2018-02-19T22:23:22.101Z,83.60
2018-02-19T22:25:49.654Z,83.70
2018-02-19T22:28:17.190Z,83.60
2018-02-19T22:30:44.759Z,83.60
2018-02-19T22:33:12.299Z,83.80
2018-02-19T22:35:40.625Z,84.10
2018-02-19T22:38:08.150Z,84.10
2018-02-19T22:40:35.711Z,84.10
2018-02-19T22:43:03.235Z,83.90
2018-02-19T22:45:30.815Z,84.40
2018-02-19T22:47:58.344Z,84.70
2018-02-19T22:50:25.922Z,84.90
2018-02-19T22:52:54.242Z,85.30
2018-02-19T22:55:21.786Z,85.30
2018-02-19T22:57:50.084Z,84.90
2018-02-19T23:00:18.398Z,85.10
2018-02-19T23:02:45.933Z,85.10
2018-02-19T23:05:13.534Z,85.10
2018-02-19T23:07:41.082Z,85.30
2018-02-19T23:10:09.431Z,85.30
2018-02-19T23:12:36.973Z,85.20
2018-02-19T23:15:04.537Z,85.30
2018-02-19T23:17:32.077Z,85.30
2018-02-19T23:20:01.133Z,85.20
2018-02-19T23:22:28.657Z,85.20
2018-02-19T23:24:56.216Z,85.20
2018-02-19T23:27:23.753Z,85.20
2018-02-19T23:29:51.316Z,85.20
2018-02-19T23:32:18.870Z,85.80
2018-02-19T23:34:46.428Z,85.90
2018-02-19T23:37:14.730Z,86.10
2018-02-19T23:39:42.285Z,86.00
2018-02-19T23:42:10.583Z,86.50
2018-02-19T23:44:38.902Z,86.40
2018-02-19T23:47:06.490Z,86.30
2018-02-19T23:49:34.049Z,86.50
2018-02-19T23:52:01.820Z,86.30
2018-02-19T23:54:35.237Z,86.40
2018-02-19T23:57:02.806Z,86.50
2018-02-19T23:59:30.359Z,86.50
